createdAt,value
2023-01-19T00:01:33.086Z,15.50
2023-01-19T00:04:01.388Z,16.17
2023-01-19T00:06:29.710Z,14.93
2023-01-19T00:08:57.898Z,14.93
2023-01-19T00:11:26.196Z,11.03
2023-01-19T00:13:54.401Z,13.18
2023-01-19T00:16:23.180Z,13.48
2023-01-19T00:18:52.213Z,13.28
2023-01-19T00:21:21.495Z,14.45
2023-01-19T00:23:51.394Z,14.50
2023-01-19T00:26:21.880Z,12.73
2023-01-19T00:28:50.380Z,16.67
2023-01-19T00:31:20.469Z,13.83
2023-01-19T00:33:49.209Z,13.53
2023-01-19T00:36:17.413Z,12.85
2023-01-19T00:38:45.689Z,14.30
2023-01-19T00:41:13.911Z,15.85
2023-01-19T00:43:42.119Z,13.40
2023-01-19T00:46:10.485Z,12.13
2023-01-19T00:48:38.736Z,16.87
2023-01-19T00:51:06.987Z,13.72
2023-01-19T00:53:35.177Z,17.80
2023-01-19T00:56:03.428Z,12.88
2023-01-19T00:58:31.629Z,12.60
2023-01-19T01:01:01.511Z,14.65
2023-01-19T01:03:29.792Z,16.12
2023-01-19T01:05:58.016Z,16.70
2023-01-19T01:08:26.223Z,11.83
2023-01-19T01:10:55.100Z,14.03
2023-01-19T01:13:26.223Z,14.98
2023-01-19T01:15:53.940Z,10.85
2023-01-19T01:18:22.626Z,11.12
2023-01-19T01:20:50.875Z,17.65
2023-01-19T01:23:20.734Z,17.02
2023-01-19T01:25:49.007Z,16.93
2023-01-19T01:28:17.230Z,13.32
2023-01-19T01:30:45.463Z,15.20
2023-01-19T01:33:13.851Z,12.53
2023-01-19T01:35:42.072Z,15.35
2023-01-19T01:38:10.278Z,14.55
2023-01-19T01:40:41.400Z,12.40
2023-01-19T01:43:11.404Z,15.48
2023-01-19T01:45:40.846Z,13.95
2023-01-19T01:48:10.544Z,14.23
2023-01-19T01:50:41.935Z,17.23
2023-01-19T01:53:11.838Z,13.90
2023-01-19T01:55:44.629Z,13.15
2023-01-19T01:58:12.858Z,15.75
2023-01-19T02:00:58.840Z,13.68
2023-01-19T02:03:27.399Z,12.23
2023-01-19T02:05:57.338Z,14.10
2023-01-19T02:08:47.838Z,14.03
2023-01-19T02:11:34.774Z,16.20
2023-01-19T02:14:04.783Z,13.32
2023-01-19T02:16:33.203Z,11.33
2023-01-19T02:19:01.483Z,14.93
2023-01-19T02:21:34.153Z,13.65
2023-01-19T02:24:03.026Z,13.43
2023-01-19T02:26:41.837Z,13.85
2023-01-19T02:29:11.219Z,13.93
2023-01-19T02:31:40.331Z,16.65
2023-01-19T02:34:10.008Z,14.98
2023-01-19T02:36:45.721Z,12.80
2023-01-19T02:39:14.853Z,15.78
2023-01-19T02:41:47.602Z,14.70
2023-01-19T02:44:17.064Z,11.65
2023-01-19T02:46:45.381Z,14.83
2023-01-19T02:49:13.577Z,16.27
2023-01-19T02:51:43.677Z,13.70
2023-01-19T02:54:13.489Z,15.63
2023-01-19T02:56:49.210Z,15.38
2023-01-19T02:59:18.941Z,9.45
2023-01-19T03:01:54.801Z,9.40
2023-01-19T03:04:27.604Z,13.98
2023-01-19T03:07:03.338Z,15.25
2023-01-19T03:09:33.077Z,10.18
2023-01-19T03:12:03.217Z,15.68
2023-01-19T03:14:33.119Z,11.00
2023-01-19T03:17:02.897Z,11.78
2023-01-19T03:19:35.604Z,13.25
2023-01-19T03:22:06.559Z,10.45
2023-01-19T03:24:37.078Z,13.05
2023-01-19T03:27:13.471Z,13.95
2023-01-19T03:29:43.553Z,15.83
2023-01-19T03:32:13.311Z,11.43
2023-01-19T03:34:43.291Z,11.45
2023-01-19T03:37:11.899Z,14.28
2023-01-19T03:39:40.508Z,14.80
2023-01-19T03:42:13.237Z,10.55
2023-01-19T03:44:42.608Z,15.98
2023-01-19T03:47:11.822Z,13.22
2023-01-19T03:49:41.584Z,10.98
2023-01-19T03:52:10.006Z,13.98
2023-01-19T03:54:38.244Z,10.95
2023-01-19T03:57:06.457Z,13.38
2023-01-19T03:59:34.934Z,16.60
2023-01-19T04:02:03.236Z,14.50
2023-01-19T04:04:31.500Z,13.18
2023-01-19T04:06:59.723Z,11.65
2023-01-19T04:09:28.002Z,11.90
2023-01-19T04:11:57.089Z,16.82
2023-01-19T04:14:25.386Z,11.40
2023-01-19T04:16:53.627Z,14.28
2023-01-19T04:19:21.829Z,17.40
2023-01-19T04:21:50.633Z,14.00
2023-01-19T04:24:18.999Z,14.68
2023-01-19T04:26:47.229Z,12.78
2023-01-19T04:29:15.526Z,16.77
2023-01-19T04:31:43.815Z,14.18
2023-01-19T04:34:12.593Z,17.40
2023-01-19T04:36:40.847Z,15.85
2023-01-19T04:39:09.193Z,12.15
2023-01-19T04:41:37.427Z,18.75
2023-01-19T04:44:05.837Z,17.55
2023-01-19T04:46:34.768Z,14.83
2023-01-19T04:49:02.979Z,16.32
2023-01-19T04:51:31.202Z,17.32
2023-01-19T04:53:59.518Z,13.60
2023-01-19T04:56:28.116Z,18.00
2023-01-19T04:58:56.386Z,15.28
2023-01-19T05:01:24.738Z,20.72
2023-01-19T05:03:53.059Z,18.62
2023-01-19T05:06:21.318Z,12.88
2023-01-19T05:08:49.575Z,15.85
2023-01-19T05:11:17.897Z,19.17
2023-01-19T05:13:46.136Z,17.30
2023-01-19T05:16:15.000Z,18.73
2023-01-19T05:18:43.182Z,18.85
2023-01-19T05:21:11.491Z,18.00
2023-01-19T05:23:39.729Z,21.37
2023-01-19T05:26:09.547Z,17.98
2023-01-19T05:28:37.941Z,18.90
2023-01-19T05:31:06.287Z,18.65
2023-01-19T05:33:34.622Z,20.82
2023-01-19T05:36:04.137Z,20.27
2023-01-19T05:38:36.144Z,23.30
2023-01-19T05:41:02.626Z,16.80
2023-01-19T05:43:30.866Z,19.12
2023-01-19T05:45:59.108Z,21.20
2023-01-19T05:48:27.375Z,23.15
2023-01-19T05:50:57.137Z,21.97
2023-01-19T05:53:25.612Z,25.05
2023-01-19T05:55:53.948Z,21.73
2023-01-19T05:58:22.199Z,26.25
2023-01-19T06:00:50.474Z,20.32
2023-01-19T06:03:18.826Z,22.35
2023-01-19T06:05:47.030Z,23.27
2023-01-19T06:08:15.306Z,18.15
2023-01-19T06:10:43.590Z,21.87
2023-01-19T06:13:11.818Z,16.93
2023-01-19T06:15:40.221Z,18.55
2023-01-19T06:18:08.462Z,15.90
2023-01-19T06:20:36.981Z,15.72
2023-01-19T06:23:05.222Z,13.70
2023-01-19T06:25:33.488Z,13.32
2023-01-19T06:28:01.722Z,16.00
2023-01-19T06:30:29.954Z,15.78
2023-01-19T06:32:58.528Z,12.75
2023-01-19T06:35:27.268Z,15.15
2023-01-19T06:37:55.499Z,14.65
2023-01-19T06:40:23.760Z,14.20
2023-01-19T06:42:52.836Z,14.23
2023-01-19T06:45:21.072Z,14.35
2023-01-19T06:47:49.336Z,14.65
2023-01-19T06:50:17.633Z,16.17
2023-01-19T06:52:45.898Z,18.02
2023-01-19T06:55:14.407Z,19.35
2023-01-19T06:57:42.621Z,17.52
2023-01-19T07:00:11.634Z,18.60
2023-01-19T07:02:43.382Z,17.05
2023-01-19T07:05:13.580Z,17.23
2023-01-19T07:07:43.041Z,15.18
2023-01-19T07:10:16.152Z,19.42
2023-01-19T07:12:46.030Z,15.50
2023-01-19T07:15:16.207Z,17.42
2023-01-19T07:17:44.646Z,16.85
2023-01-19T07:20:14.213Z,17.12
2023-01-19T07:22:44.449Z,19.25
2023-01-19T07:25:13.063Z,15.98
2023-01-19T07:27:41.534Z,14.00
2023-01-19T07:30:10.110Z,21.15
2023-01-19T07:32:38.320Z,19.25
2023-01-19T07:35:06.606Z,18.90
2023-01-19T07:37:34.827Z,21.73
2023-01-19T07:40:03.068Z,22.22
2023-01-19T07:42:31.301Z,19.30
2023-01-19T07:44:59.670Z,22.22
2023-01-19T07:47:27.887Z,20.80
2023-01-19T07:49:56.113Z,21.95
2023-01-19T07:52:24.342Z,22.40
2023-01-19T07:54:52.563Z,18.95
2023-01-19T07:57:21.870Z,20.00
2023-01-19T07:59:50.079Z,17.35
2023-01-19T08:02:18.290Z,18.90
2023-01-19T08:04:48.870Z,17.05
2023-01-19T08:07:17.068Z,21.07
2023-01-19T08:09:45.399Z,19.17
2023-01-19T08:12:13.637Z,20.57
2023-01-19T08:14:41.839Z,23.18
2023-01-19T08:17:11.589Z,18.95
2023-01-19T08:19:41.522Z,22.85
2023-01-19T08:22:10.097Z,18.60
2023-01-19T08:24:38.323Z,20.62
2023-01-19T08:27:06.560Z,23.52
2023-01-19T08:29:34.886Z,24.10
2023-01-19T08:32:03.320Z,20.32
2023-01-19T08:34:31.877Z,20.55
2023-01-19T08:37:00.150Z,22.60
2023-01-19T08:39:28.375Z,20.68
2023-01-19T08:41:56.567Z,22.70
2023-01-19T08:44:24.792Z,22.52
2023-01-19T08:46:53.026Z,24.98
2023-01-19T08:49:21.252Z,24.50
2023-01-19T08:51:49.486Z,23.42
2023-01-19T08:54:18.756Z,23.47
2023-01-19T08:56:47.091Z,25.20
2023-01-19T08:59:15.391Z,25.77
2023-01-19T09:01:44.444Z,28.17
2023-01-19T09:04:12.698Z,23.57
2023-01-19T09:06:40.920Z,27.27
2023-01-19T09:09:09.131Z,31.48
2023-01-19T09:11:37.362Z,29.87
2023-01-19T09:14:05.938Z,29.27
2023-01-19T09:16:34.321Z,29.20
2023-01-19T09:19:02.627Z,35.65
2023-01-19T09:21:30.866Z,34.20
2023-01-19T09:23:59.142Z,36.50
2023-01-19T09:26:27.398Z,38.10
2023-01-19T09:28:55.606Z,32.90
2023-01-19T09:31:24.086Z,33.88
2023-01-19T09:33:52.350Z,35.55
2023-01-19T09:36:20.568Z,32.17
2023-01-19T09:38:48.805Z,29.77
2023-01-19T09:41:18.549Z,27.02
2023-01-19T09:43:48.337Z,32.28
2023-01-19T09:46:18.143Z,36.53
2023-01-19T09:48:47.916Z,34.63
2023-01-19T09:51:17.706Z,36.13
2023-01-19T09:53:47.472Z,35.73
2023-01-19T09:56:16.552Z,33.65
2023-01-19T09:58:44.837Z,35.73
2023-01-19T10:01:23.706Z,35.60
2023-01-19T10:03:53.551Z,34.53
2023-01-19T10:06:22.909Z,36.75
2023-01-19T10:08:52.637Z,35.50
2023-01-19T10:11:24.041Z,46.02
2023-01-19T10:13:54.016Z,39.73
2023-01-19T10:16:26.918Z,33.78
2023-01-19T10:18:56.624Z,35.75
2023-01-19T10:21:26.446Z,27.62
2023-01-19T10:23:56.618Z,44.33
2023-01-19T10:26:29.076Z,33.67
2023-01-19T10:31:25.586Z,36.95
2023-01-19T10:33:54.296Z,35.88
2023-01-19T10:36:24.094Z,49.40
2023-01-19T10:38:52.685Z,34.03
2023-01-19T10:41:23.831Z,32.88
2023-01-19T10:43:53.584Z,41.33
2023-01-19T10:46:23.620Z,34.48
2023-01-19T10:48:52.826Z,35.95
2023-01-19T10:51:21.312Z,43.68
2023-01-19T10:53:57.259Z,42.75
2023-01-19T10:56:33.103Z,32.63
2023-01-19T10:59:02.170Z,38.20
2023-01-19T11:01:31.154Z,33.28
2023-01-19T11:04:01.055Z,43.30
2023-01-19T11:06:30.646Z,35.63
2023-01-19T11:09:12.722Z,35.70
2023-01-19T11:11:48.195Z,34.27
2023-01-19T11:14:18.047Z,35.83
2023-01-19T11:16:47.747Z,39.25
2023-01-19T11:19:32.368Z,37.25
2023-01-19T11:22:14.109Z,35.98
2023-01-19T11:24:43.867Z,30.93
2023-01-19T11:27:13.633Z,36.25
2023-01-19T11:29:43.358Z,41.77
2023-01-19T11:32:12.853Z,37.25
2023-01-19T11:34:41.080Z,28.32
2023-01-19T11:37:17.835Z,40.17
2023-01-19T11:39:49.822Z,32.42
2023-01-19T11:42:18.638Z,34.95
2023-01-19T11:44:48.385Z,32.28
2023-01-19T11:47:21.190Z,38.20
2023-01-19T11:49:53.588Z,32.83
2023-01-19T11:54:56.621Z,30.90
2023-01-19T11:57:25.582Z,38.02
2023-01-19T11:59:54.568Z,36.08
2023-01-19T12:02:29.755Z,33.70
2023-01-19T12:04:59.483Z,31.68
2023-01-19T12:07:30.102Z,32.95
2023-01-19T12:09:59.868Z,35.40
2023-01-19T12:12:29.620Z,34.25
2023-01-19T12:15:02.177Z,35.63
2023-01-19T12:17:32.077Z,38.88
2023-01-19T12:20:01.817Z,31.75
2023-01-19T12:22:31.781Z,38.78
2023-01-19T12:25:01.575Z,36.15
2023-01-19T12:27:40.475Z,40.80
2023-01-19T12:30:13.180Z,37.00
2023-01-19T12:32:42.977Z,35.23
2023-01-19T12:35:12.748Z,34.90
2023-01-19T12:37:42.773Z,32.15
2023-01-19T12:40:21.500Z,29.92
2023-01-19T12:42:51.250Z,34.35
2023-01-19T12:45:21.062Z,28.83
2023-01-19T12:47:53.484Z,29.87
2023-01-19T12:50:23.950Z,34.05
2023-01-19T12:52:55.294Z,42.33
2023-01-19T12:55:25.072Z,33.30
2023-01-19T12:57:54.844Z,29.85
2023-01-19T13:00:24.599Z,32.80
2023-01-19T13:02:57.325Z,31.95
2023-01-19T13:05:27.453Z,31.95
2023-01-19T13:08:09.057Z,28.95
2023-01-19T13:10:57.027Z,31.15
2023-01-19T13:13:32.234Z,29.85
2023-01-19T13:16:02.117Z,35.65
2023-01-19T13:18:31.884Z,34.65
2023-01-19T13:21:04.410Z,30.60
2023-01-19T13:26:01.673Z,27.70
2023-01-19T13:28:34.358Z,29.32
2023-01-19T13:31:03.565Z,31.65
2023-01-19T13:33:33.390Z,25.65
2023-01-19T13:36:01.600Z,30.32
2023-01-19T13:38:31.646Z,28.30
2023-01-19T13:41:01.437Z,30.30
2023-01-19T13:43:31.154Z,30.05
2023-01-19T13:46:00.356Z,33.40
2023-01-19T13:48:28.685Z,27.05
2023-01-19T13:51:01.466Z,29.72
2023-01-19T13:53:30.243Z,30.60
2023-01-19T13:56:08.986Z,29.05
2023-01-19T13:58:37.239Z,30.02
2023-01-19T14:01:05.547Z,33.05
2023-01-19T14:03:33.844Z,32.40
2023-01-19T14:06:03.034Z,31.20
2023-01-19T14:08:32.691Z,25.60
2023-01-19T14:11:02.290Z,30.70
2023-01-19T14:13:34.575Z,27.73
2023-01-19T14:16:07.281Z,30.20
2023-01-19T14:18:36.151Z,27.80
2023-01-19T14:21:07.346Z,25.95
2023-01-19T14:23:39.786Z,24.20
2023-01-19T14:28:37.992Z,26.02
2023-01-19T14:31:07.785Z,26.07
2023-01-19T14:33:36.579Z,25.95
2023-01-19T14:36:11.551Z,29.10
2023-01-19T14:38:41.283Z,26.73
2023-01-19T14:41:10.283Z,23.77
2023-01-19T14:43:40.031Z,26.02
2023-01-19T14:46:08.281Z,23.05
2023-01-19T14:48:36.590Z,23.95
2023-01-19T14:51:04.989Z,23.25
2023-01-19T14:53:34.703Z,26.17
2023-01-19T14:56:07.273Z,23.77
2023-01-19T15:01:03.925Z,28.75
2023-01-19T15:03:44.429Z,24.40
2023-01-19T15:06:04.288Z,26.27
2023-01-19T15:08:33.839Z,27.05
2023-01-19T15:11:03.560Z,24.85
2023-01-19T15:13:31.858Z,25.50
2023-01-19T15:16:00.153Z,26.55
2023-01-19T15:18:28.443Z,31.93
2023-01-19T15:20:58.370Z,27.05
2023-01-19T15:23:26.582Z,25.95
2023-01-19T15:25:56.313Z,30.45
2023-01-19T15:28:24.913Z,27.32
2023-01-19T15:30:55.664Z,26.23
2023-01-19T15:33:25.138Z,33.18
2023-01-19T15:35:53.604Z,28.10
2023-01-19T15:38:22.203Z,26.25
2023-01-19T15:40:51.666Z,26.33
2023-01-19T15:43:21.200Z,31.90
2023-01-19T15:45:51.025Z,36.68
2023-01-19T15:48:19.892Z,31.30
2023-01-19T15:50:48.104Z,26.35
2023-01-19T15:53:17.485Z,29.20
2023-01-19T15:55:47.239Z,30.70
2023-01-19T15:58:15.608Z,28.73
2023-01-19T16:00:43.844Z,26.95
2023-01-19T16:03:12.205Z,25.62
2023-01-19T16:05:43.200Z,29.25
2023-01-19T16:08:11.399Z,34.13
2023-01-19T16:10:40.878Z,25.92
2023-01-19T16:13:09.593Z,25.43
2023-01-19T16:15:38.317Z,27.20
2023-01-19T16:18:06.645Z,26.73
2023-01-19T16:20:35.038Z,28.52
2023-01-19T16:23:14.109Z,28.47
2023-01-19T16:25:33.234Z,25.82
2023-01-19T16:28:02.816Z,24.15
2023-01-19T16:30:31.172Z,20.95
2023-01-19T16:32:59.383Z,23.18
2023-01-19T16:35:27.718Z,26.25
2023-01-19T16:37:56.209Z,24.67
2023-01-19T16:40:25.919Z,24.35
2023-01-19T16:42:54.261Z,28.30
2023-01-19T16:45:22.626Z,26.40
2023-01-19T16:47:52.074Z,31.17
2023-01-19T16:50:20.443Z,28.57
2023-01-19T16:52:50.563Z,25.77
2023-01-19T16:55:18.940Z,26.90
2023-01-19T16:57:47.198Z,28.38
2023-01-19T17:00:15.593Z,28.95
2023-01-19T17:02:43.879Z,28.15
2023-01-19T17:05:12.468Z,27.50
2023-01-19T17:07:40.896Z,24.40
2023-01-19T17:10:09.844Z,26.70
2023-01-19T17:12:38.237Z,30.90
2023-01-19T17:15:06.871Z,30.37
2023-01-19T17:17:36.611Z,32.45
2023-01-19T17:20:05.048Z,26.52
2023-01-19T17:22:33.290Z,24.30
2023-01-19T17:25:01.573Z,29.10
2023-01-19T17:27:29.989Z,26.62
2023-01-19T17:29:58.232Z,26.82
2023-01-19T17:32:26.472Z,27.07
2023-01-19T17:34:54.711Z,26.10
2023-01-19T17:37:22.958Z,31.02
2023-01-19T17:39:51.205Z,28.85
2023-01-19T17:42:19.422Z,30.70
2023-01-19T17:44:47.736Z,27.48
2023-01-19T17:47:16.028Z,30.50
2023-01-19T17:49:44.232Z,26.97
2023-01-19T17:52:12.518Z,25.48
2023-01-19T17:54:40.768Z,23.67
2023-01-19T17:57:08.984Z,28.55
2023-01-19T17:59:38.895Z,28.55
2023-01-19T18:02:07.485Z,26.60
2023-01-19T18:04:37.298Z,25.23
2023-01-19T18:07:05.559Z,24.25
2023-01-19T18:09:35.859Z,22.48
2023-01-19T18:12:04.262Z,23.15
2023-01-19T18:14:32.556Z,28.25
2023-01-19T18:17:00.811Z,28.67
2023-01-19T18:19:29.052Z,21.17
2023-01-19T18:21:57.367Z,20.62
2023-01-19T18:24:25.706Z,18.10
2023-01-19T18:26:55.708Z,17.85
2023-01-19T18:29:24.015Z,19.27
2023-01-19T18:31:52.388Z,19.92
2023-01-19T18:34:20.613Z,23.75
2023-01-19T18:36:48.857Z,17.95
2023-01-19T18:39:17.099Z,16.52
2023-01-19T18:41:45.378Z,16.73
2023-01-19T18:44:13.676Z,19.67
2023-01-19T18:46:41.995Z,18.10
2023-01-19T18:49:10.276Z,17.02
2023-01-19T18:51:40.296Z,17.82
2023-01-19T18:54:08.903Z,20.90
2023-01-19T18:56:37.155Z,21.15
2023-01-19T18:59:05.419Z,21.00
2023-01-19T19:01:36.297Z,22.85
2023-01-19T19:04:04.692Z,25.15
2023-01-19T19:06:34.011Z,36.83
2023-01-19T19:09:03.119Z,29.77
2023-01-19T19:11:31.379Z,24.35
2023-01-19T19:14:01.052Z,27.75
2023-01-19T19:16:29.702Z,30.95
2023-01-19T19:18:58.032Z,34.15
2023-01-19T19:21:26.290Z,38.92
2023-01-19T19:23:55.964Z,31.48
2023-01-19T19:26:24.751Z,33.48
2023-01-19T19:28:53.017Z,39.10
2023-01-19T19:31:22.375Z,31.90
2023-01-19T19:33:51.014Z,25.95
2023-01-19T19:36:20.181Z,26.55
2023-01-19T19:38:51.589Z,29.23
2023-01-19T19:41:23.522Z,27.22
2023-01-19T19:43:52.518Z,27.17
2023-01-19T19:46:24.004Z,27.45
2023-01-19T19:48:53.274Z,38.02
2023-01-19T19:51:25.637Z,36.48
2023-01-19T19:56:24.824Z,37.08
2023-01-19T19:58:55.814Z,32.65
2023-01-19T20:01:34.028Z,33.98
2023-01-19T20:04:08.612Z,23.90
2023-01-19T20:06:39.779Z,28.95
2023-01-19T20:09:12.727Z,24.32
2023-01-19T20:11:41.454Z,30.37
2023-01-19T20:14:12.249Z,26.68
2023-01-19T20:16:41.161Z,28.95
2023-01-19T20:19:10.330Z,29.50
2023-01-19T20:21:42.438Z,33.13
2023-01-19T20:24:19.533Z,29.30
2023-01-19T20:26:51.670Z,31.30
2023-01-19T20:29:20.894Z,34.48
2023-01-19T20:31:52.785Z,31.57
2023-01-19T20:34:23.612Z,38.13
2023-01-19T20:36:53.775Z,33.25
2023-01-19T20:39:24.372Z,40.12
2023-01-19T20:41:53.273Z,35.63
2023-01-19T20:44:24.061Z,30.17
2023-01-19T20:46:54.247Z,23.98
2023-01-19T20:49:23.256Z,28.60
2023-01-19T20:51:52.164Z,30.57
2023-01-19T20:54:24.237Z,27.17
2023-01-19T20:56:52.843Z,27.05
2023-01-19T20:59:21.705Z,28.65
2023-01-19T21:01:50.930Z,23.67
2023-01-19T21:04:19.712Z,36.95
2023-01-19T21:06:47.919Z,27.82
2023-01-19T21:09:18.410Z,89.35
2023-01-19T21:11:46.973Z,33.35
2023-01-19T21:14:15.587Z,32.38
2023-01-19T21:16:44.218Z,28.10
2023-01-19T21:19:12.592Z,28.85
2023-01-19T21:21:41.225Z,32.88
2023-01-19T21:24:11.714Z,26.70
2023-01-19T21:26:41.668Z,30.65
2023-01-19T21:29:13.326Z,29.12
2023-01-19T21:31:43.064Z,27.82
2023-01-19T21:34:11.852Z,30.72
2023-01-19T21:36:41.823Z,28.65
2023-01-19T21:39:10.397Z,27.45
2023-01-19T21:41:40.941Z,32.08
2023-01-19T21:44:11.131Z,30.68
2023-01-19T21:46:39.941Z,31.27
2023-01-19T21:49:09.501Z,31.40
2023-01-19T21:51:38.217Z,30.12
2023-01-19T21:54:08.032Z,31.57
2023-01-19T21:56:38.848Z,27.58
2023-01-19T21:59:07.520Z,26.48
2023-01-19T22:01:36.479Z,24.23
2023-01-19T22:04:05.422Z,31.37
2023-01-19T22:06:34.313Z,34.35
2023-01-19T22:09:03.160Z,28.07
2023-01-19T22:11:31.761Z,29.60
2023-01-19T22:14:00.493Z,35.92
2023-01-19T22:16:30.586Z,30.68
2023-01-19T22:19:02.419Z,30.23
2023-01-19T22:21:35.472Z,33.08
2023-01-19T22:24:06.109Z,33.65
2023-01-19T22:26:36.780Z,29.63
2023-01-19T22:29:08.196Z,31.80
2023-01-19T22:31:36.920Z,37.40
2023-01-19T22:34:07.644Z,26.55
2023-01-19T22:36:36.616Z,31.20
2023-01-19T22:39:11.161Z,30.90
2023-01-19T22:41:45.297Z,30.17
2023-01-19T22:44:16.478Z,29.15
2023-01-19T22:46:45.211Z,34.18
2023-01-19T22:49:16.165Z,29.92
2023-01-19T22:51:45.180Z,26.93
2023-01-19T22:54:14.472Z,28.80
2023-01-19T22:56:43.661Z,30.27
2023-01-19T22:59:12.215Z,31.97
2023-01-19T23:01:42.940Z,27.82
2023-01-19T23:04:16.485Z,39.65
2023-01-19T23:06:47.010Z,33.65
2023-01-19T23:09:16.182Z,38.98
2023-01-19T23:11:48.518Z,34.40
2023-01-19T23:16:47.030Z,33.20
2023-01-19T23:19:17.153Z,30.10
2023-01-19T23:21:46.255Z,34.20
2023-01-19T23:24:14.826Z,35.52
2023-01-19T23:26:45.264Z,35.40
2023-01-19T23:29:15.611Z,40.05
2023-01-19T23:31:46.478Z,31.90
2023-01-19T23:34:15.932Z,34.70
2023-01-19T23:36:44.834Z,32.35
2023-01-19T23:39:19.128Z,29.90
2023-01-19T23:41:48.030Z,35.45
2023-01-19T23:44:17.360Z,35.40
2023-01-19T23:46:46.408Z,32.17
2023-01-19T23:49:14.589Z,38.38
2023-01-19T23:51:43.403Z,31.45
2023-01-19T23:54:12.234Z,35.00
2023-01-19T23:56:42.528Z,36.75
2023-01-19T23:59:12.313Z,38.42
